Time;durP1;ratioP1;P1;durP2;ratioP2;P2;SDS_P1;SDS_P2;PMS_P1;PMS_P2;Temp;Humidity;BMP_temperature;BMP_pressure;BME280_temperature;BME280_humidity;BME280_pressure;Samples;Min_cycle;Max_cycle;Signal;HPM_P1;HPM_P2
2023/06/04 00:01:26;;;;;;;7.10;4.10;;;11.90;99.90;;;;;;5033275;28;20065;-59
2023/06/04 00:03:53;;;;;;;8.32;4.20;;;11.80;99.90;;;;;;5033386;28;20079;-59
2023/06/04 00:06:18;;;;;;;10.63;4.97;;;11.80;99.90;;;;;;5035035;28;20041;-60
2023/06/04 00:08:44;;;;;;;8.68;4.72;;;11.80;99.90;;;;;;5032492;28;20044;-59
2023/06/04 00:11:10;;;;;;;9.95;4.18;;;11.80;99.90;;;;;;5032783;28;20087;-59
2023/06/04 00:13:36;;;;;;;10.77;4.88;;;11.70;99.90;;;;;;5030616;28;20103;-59
2023/06/04 00:16:01;;;;;;;8.93;3.90;;;11.70;99.90;;;;;;5034811;28;20037;-59
2023/06/04 00:18:27;;;;;;;10.88;4.30;;;11.70;99.90;;;;;;5033445;28;20045;-59
2023/06/04 00:20:53;;;;;;;9.18;4.55;;;11.60;99.90;;;;;;5029749;28;20590;-59
2023/06/04 00:23:18;;;;;;;11.93;4.40;;;11.60;99.90;;;;;;5033029;28;20041;-59
2023/06/04 00:25:45;;;;;;;9.65;3.80;;;11.60;99.90;;;;;;5032084;28;20040;-60
2023/06/04 00:28:10;;;;;;;8.05;3.63;;;11.60;99.90;;;;;;5037820;28;20045;-59
2023/06/04 00:30:36;;;;;;;11.50;4.32;;;11.60;99.90;;;;;;5037437;28;20041;-59
2023/06/04 00:33:03;;;;;;;7.95;4.53;;;11.50;99.90;;;;;;5038104;28;20053;-59
2023/06/04 00:35:29;;;;;;;9.48;4.93;;;11.50;99.90;;;;;;5036756;28;20500;-59
2023/06/04 00:37:54;;;;;;;6.90;4.60;;;11.50;99.90;;;;;;5036233;28;20025;-59
2023/06/04 00:40:20;;;;;;;8.68;4.65;;;11.50;99.90;;;;;;5030665;28;20048;-59
2023/06/04 00:42:46;;;;;;;10.43;4.22;;;11.40;99.90;;;;;;5034702;28;20053;-59
2023/06/04 00:45:15;;;;;;;9.35;4.32;;;11.40;99.90;;;;;;5037175;28;20044;-59
2023/06/04 00:47:41;;;;;;;12.23;4.82;;;11.40;99.90;;;;;;5040522;28;20037;-59
2023/06/04 00:50:08;;;;;;;10.07;4.63;;;11.40;99.90;;;;;;5036791;28;20045;-59
2023/06/04 00:52:34;;;;;;;10.63;4.68;;;11.40;99.90;;;;;;5035460;28;20038;-59
2023/06/04 00:55:00;;;;;;;11.35;4.80;;;11.30;99.90;;;;;;5035348;28;20098;-59
2023/06/04 00:57:26;;;;;;;12.65;4.72;;;11.30;99.90;;;;;;5040289;28;20028;-59
2023/06/04 00:59:52;;;;;;;10.57;5.00;;;11.30;99.90;;;;;;5037635;28;20120;-58
2023/06/04 01:02:23;;;;;;;12.63;4.32;;;11.20;99.90;;;;;;5021482;28;20040;-59
2023/06/04 01:04:59;;;;;;;12.25;4.65;;;11.20;99.90;;;;;;5032088;28;20052;-59
2023/06/04 01:07:28;;;;;;;9.05;4.28;;;11.20;99.90;;;;;;5034434;28;20037;-59
2023/06/04 01:09:54;;;;;;;9.75;4.63;;;11.20;99.90;;;;;;5035676;28;20513;-59
2023/06/04 01:12:20;;;;;;;7.72;4.13;;;11.20;99.90;;;;;;5037861;28;20033;-59
2023/06/04 01:14:46;;;;;;;9.23;4.07;;;11.10;99.90;;;;;;5035075;28;20048;-59
2023/06/04 01:17:20;;;;;;;9.55;4.63;;;11.10;99.90;;;;;;5036594;28;20136;-59
2023/06/04 01:20:13;;;;;;;6.80;4.10;;;11.10;99.90;;;;;;5035412;28;20076;-59
2023/06/04 01:23:02;;;;;;;7.65;4.07;;;11.10;99.90;;;;;;5033835;28;20131;-59
2023/06/04 01:25:39;;;;;;;6.95;4.03;;;11.10;99.90;;;;;;5032483;28;20057;-59
2023/06/04 01:28:06;;;;;;;9.23;4.50;;;11.00;99.90;;;;;;5047361;28;20476;-59
2023/06/04 01:30:35;;;;;;;8.90;3.80;;;11.00;99.90;;;;;;5035428;28;20048;-58
2023/06/04 01:33:02;;;;;;;10.48;3.70;;;11.00;99.90;;;;;;5033023;28;20051;-58
2023/06/04 01:35:31;;;;;;;5.60;3.72;;;11.00;99.90;;;;;;5037099;28;20530;-59
2023/06/04 01:37:56;;;;;;;9.13;4.20;;;10.90;99.90;;;;;;5034594;28;20149;-59
2023/06/04 01:40:23;;;;;;;8.30;3.78;;;10.90;99.90;;;;;;5030882;28;20072;-58
2023/06/04 01:42:49;;;;;;;6.07;3.80;;;10.90;99.90;;;;;;5035741;28;20047;-59
2023/06/04 01:45:15;;;;;;;5.00;3.00;;;10.90;99.90;;;;;;5032418;28;20041;-59
2023/06/04 01:47:41;;;;;;;4.47;2.97;;;10.80;99.90;;;;;;5033615;28;20048;-59
2023/06/04 01:50:10;;;;;;;4.25;2.65;;;10.80;99.90;;;;;;5033801;28;20120;-59
2023/06/04 01:52:37;;;;;;;4.38;3.00;;;10.80;99.90;;;;;;5033430;28;20086;-59
2023/06/04 01:55:08;;;;;;;5.72;3.15;;;10.70;99.90;;;;;;5034217;28;20043;-59
2023/06/04 01:57:35;;;;;;;3.75;2.97;;;10.70;99.90;;;;;;5034585;28;20167;-59
2023/06/04 02:00:01;;;;;;;7.28;3.00;;;10.70;99.90;;;;;;5031971;28;20112;-59
2023/06/04 02:02:27;;;;;;;7.35;3.47;;;10.60;99.90;;;;;;5033867;28;20106;-59
2023/06/04 02:04:53;;;;;;;5.85;2.83;;;10.60;99.90;;;;;;5029082;28;20833;-58
2023/06/04 02:07:21;;;;;;;6.35;2.90;;;10.60;99.90;;;;;;5025083;28;20037;-59
2023/06/04 02:09:50;;;;;;;7.47;3.03;;;10.50;99.90;;;;;;5032708;28;20583;-59
2023/06/04 02:12:15;;;;;;;6.25;3.25;;;10.50;99.90;;;;;;5030440;28;20043;-59
2023/06/04 02:14:42;;;;;;;6.47;3.20;;;10.40;99.90;;;;;;5034765;28;20037;-58
2023/06/04 02:17:12;;;;;;;5.18;3.00;;;10.40;99.90;;;;;;5034627;28;20103;-59
2023/06/04 02:19:49;;;;;;;3.70;2.72;;;10.40;99.90;;;;;;5032043;28;20114;-59
2023/06/04 02:22:17;;;;;;;7.75;3.33;;;10.30;99.90;;;;;;5034740;28;20473;-59
2023/06/04 02:24:43;;;;;;;2.47;2.00;;;10.30;99.90;;;;;;5033038;28;20029;-59
2023/06/04 02:27:10;;;;;;;3.25;1.90;;;10.20;99.90;;;;;;5030800;28;20389;-59
2023/06/04 02:29:36;;;;;;;3.38;1.88;;;10.20;99.90;;;;;;5030384;28;20041;-59
2023/06/04 02:32:03;;;;;;;2.30;1.90;;;10.10;99.90;;;;;;5033607;28;20056;-59
2023/06/04 02:34:29;;;;;;;3.22;1.70;;;10.10;99.90;;;;;;5018354;28;20413;-58
2023/06/04 02:36:54;;;;;;;2.75;2.00;;;10.00;99.90;;;;;;5035048;28;20052;-59
2023/06/04 02:39:20;;;;;;;4.70;1.98;;;10.00;99.90;;;;;;5029767;28;20042;-59
2023/06/04 02:41:46;;;;;;;2.30;2.10;;;10.00;99.90;;;;;;5038113;28;20044;-59
2023/06/04 02:44:12;;;;;;;2.22;1.98;;;10.00;99.90;;;;;;5032743;28;20513;-59
2023/06/04 02:46:38;;;;;;;4.28;2.80;;;9.90;99.90;;;;;;5031811;28;20047;-59
2023/06/04 02:49:05;;;;;;;5.80;2.53;;;9.90;99.90;;;;;;5034085;28;20039;-59
2023/06/04 02:51:32;;;;;;;5.28;2.65;;;9.90;99.90;;;;;;5032164;28;20041;-59
2023/06/04 02:53:58;;;;;;;4.32;2.90;;;9.90;99.90;;;;;;5032252;28;20091;-59
2023/06/04 02:56:25;;;;;;;5.72;2.60;;;9.90;99.90;;;;;;5030831;28;20117;-59
2023/06/04 02:58:53;;;;;;;4.53;2.92;;;9.90;99.90;;;;;;5037633;28;20053;-58
2023/06/04 03:01:23;;;;;;;4.22;2.53;;;9.90;99.90;;;;;;5031637;28;20044;-59
2023/06/04 03:03:49;;;;;;;3.08;2.03;;;9.90;99.90;;;;;;5031590;28;20033;-59
2023/06/04 03:06:16;;;;;;;2.42;2.22;;;9.80;99.90;;;;;;5033460;28;20594;-59
2023/06/04 03:08:43;;;;;;;5.55;2.72;;;9.80;99.90;;;;;;5026800;28;20069;-58
2023/06/04 03:11:09;;;;;;;4.07;2.40;;;9.80;99.90;;;;;;5032095;28;20041;-59
2023/06/04 03:13:35;;;;;;;4.30;1.90;;;9.80;99.90;;;;;;5030697;28;20068;-59
2023/06/04 03:16:02;;;;;;;2.90;2.20;;;9.70;99.90;;;;;;5031373;28;20099;-59
2023/06/04 03:18:28;;;;;;;3.60;2.25;;;9.70;99.90;;;;;;5032412;28;20127;-58
2023/06/04 03:20:54;;;;;;;4.40;2.90;;;9.70;99.90;;;;;;5032663;28;20869;-58
2023/06/04 03:23:21;;;;;;;7.05;2.80;;;9.80;99.90;;;;;;5015277;28;20490;-59
2023/06/04 03:25:47;;;;;;;8.23;3.65;;;9.70;99.90;;;;;;5034558;28;20041;-59
2023/06/04 03:28:13;;;;;;;5.07;3.20;;;9.70;99.90;;;;;;5034958;28;20120;-59
2023/06/04 03:30:40;;;;;;;10.27;4.35;;;9.70;99.90;;;;;;5033963;28;20131;-59
2023/06/04 03:33:07;;;;;;;9.02;3.70;;;9.70;99.90;;;;;;5015972;28;20059;-59
2023/06/04 03:35:33;;;;;;;6.50;3.70;;;9.60;99.90;;;;;;5036521;28;20081;-58
2023/06/04 03:38:00;;;;;;;4.60;3.33;;;9.60;99.90;;;;;;5032752;28;20553;-58
2023/06/04 03:40:25;;;;;;;7.20;3.47;;;9.60;99.90;;;;;;5033748;28;20035;-59
2023/06/04 03:42:51;;;;;;;5.60;3.80;;;9.60;99.90;;;;;;5038083;28;20399;-58
2023/06/04 03:45:17;;;;;;;4.65;3.22;;;9.60;99.90;;;;;;5040748;28;20040;-58
2023/06/04 03:47:43;;;;;;;5.35;3.50;;;9.60;99.90;;;;;;5034346;28;20037;-59
2023/06/04 03:50:09;;;;;;;4.32;3.20;;;9.60;99.90;;;;;;5034693;28;20060;-59
2023/06/04 03:52:35;;;;;;;4.80;3.50;;;9.60;99.90;;;;;;5038125;28;20102;-59
2023/06/04 03:55:01;;;;;;;8.43;3.38;;;9.60;99.90;;;;;;5032228;28;20052;-59
2023/06/04 03:57:27;;;;;;;3.33;3.03;;;9.60;99.90;;;;;;5035688;28;20095;-59
2023/06/04 03:59:53;;;;;;;5.32;3.08;;;9.60;99.90;;;;;;5033320;28;20143;-59
2023/06/04 04:02:18;;;;;;;5.38;2.35;;;9.60;99.90;;;;;;5032703;28;20041;-59
2023/06/04 04:04:44;;;;;;;5.93;2.58;;;9.60;99.90;;;;;;5033700;28;20036;-59
2023/06/04 04:07:10;;;;;;;4.15;2.33;;;9.60;99.90;;;;;;5031855;28;20041;-59
2023/06/04 04:09:36;;;;;;;3.08;2.60;;;9.60;99.90;;;;;;5033663;28;20041;-59
2023/06/04 04:12:03;;;;;;;4.07;3.22;;;9.60;99.90;;;;;;5031271;28;20064;-58
2023/06/04 04:14:29;;;;;;;5.03;3.20;;;9.60;99.90;;;;;;5031412;28;20033;-58
2023/06/04 04:16:55;;;;;;;5.57;3.33;;;9.60;99.90;;;;;;5029329;28;20061;-59
2023/06/04 04:19:20;;;;;;;5.68;3.22;;;9.70;99.90;;;;;;5031592;28;20044;-58
2023/06/04 04:21:50;;;;;;;6.22;3.15;;;9.70;99.90;;;;;;5031096;28;20045;-59
2023/06/04 04:24:28;;;;;;;4.90;2.90;;;9.70;99.90;;;;;;5032779;28;20040;-58
2023/06/04 04:26:54;;;;;;;4.45;3.22;;;9.70;99.90;;;;;;5036584;28;20129;-58
2023/06/04 04:29:24;;;;;;;5.05;3.40;;;9.70;99.90;;;;;;5035518;28;20093;-59
2023/06/04 04:31:57;;;;;;;4.43;3.20;;;9.70;99.90;;;;;;5035171;28;20048;-59
2023/06/04 04:34:25;;;;;;;3.40;3.10;;;9.80;99.90;;;;;;5035799;28;20069;-58
2023/06/04 04:36:54;;;;;;;6.50;3.47;;;9.80;99.90;;;;;;5033664;28;21215;-59
2023/06/04 04:39:24;;;;;;;7.60;3.72;;;9.80;99.90;;;;;;5032996;28;20040;-59
2023/06/04 04:41:50;;;;;;;6.25;3.70;;;9.90;99.90;;;;;;5034811;28;20034;-59
2023/06/04 04:44:16;;;;;;;5.80;4.05;;;9.90;99.90;;;;;;5031038;28;20048;-59
2023/06/04 04:46:42;;;;;;;7.82;3.72;;;9.90;99.90;;;;;;5033983;28;20481;-58
2023/06/04 04:49:08;;;;;;;5.05;4.05;;;10.00;99.90;;;;;;5032115;28;20051;-59
2023/06/04 04:51:33;;;;;;;8.65;5.40;;;10.10;99.90;;;;;;5028362;28;20040;-59
2023/06/04 04:54:02;;;;;;;9.30;6.00;;;10.10;99.90;;;;;;5028596;28;20077;-58
2023/06/04 04:56:29;;;;;;;9.63;5.95;;;10.20;99.90;;;;;;5029702;28;20065;-59
2023/06/04 04:58:55;;;;;;;9.95;6.47;;;10.20;99.90;;;;;;5029326;28;20063;-59
2023/06/04 05:01:21;;;;;;;12.55;6.35;;;10.30;99.90;;;;;;5031727;28;20046;-59
2023/06/04 05:03:48;;;;;;;12.95;7.13;;;10.40;99.90;;;;;;5029871;28;20501;-58
2023/06/04 05:06:14;;;;;;;17.23;7.90;;;10.40;99.90;;;;;;5029828;28;20048;-59
2023/06/04 05:08:40;;;;;;;12.07;7.22;;;10.50;99.90;;;;;;5032850;28;20033;-58
2023/06/04 05:11:06;;;;;;;11.43;6.03;;;10.60;99.90;;;;;;5030189;28;20049;-59
2023/06/04 05:13:31;;;;;;;10.45;6.95;;;10.60;99.90;;;;;;5033919;28;20044;-57
2023/06/04 05:15:57;;;;;;;12.88;7.78;;;10.70;99.90;;;;;;5032708;28;20048;-59
2023/06/04 05:18:28;;;;;;;15.00;8.00;;;10.80;99.90;;;;;;5033393;28;20046;-57
2023/06/04 05:20:54;;;;;;;17.33;8.93;;;10.90;99.90;;;;;;5034032;28;20124;-59
2023/06/04 05:23:20;;;;;;;17.70;9.32;;;10.90;99.90;;;;;;5033636;28;20164;-58
2023/06/04 05:25:48;;;;;;;15.32;9.48;;;11.00;99.90;;;;;;5035129;28;20053;-59
2023/06/04 05:28:15;;;;;;;17.98;9.55;;;11.10;99.90;;;;;;5018873;28;20045;-58
2023/06/04 05:30:41;;;;;;;21.25;9.00;;;11.10;99.90;;;;;;5034272;28;20163;-59
2023/06/04 05:33:17;;;;;;;18.85;9.02;;;11.20;99.90;;;;;;5036641;28;20238;-59
2023/06/04 05:35:51;;;;;;;16.48;8.88;;;11.30;99.90;;;;;;5033773;28;20541;-59
2023/06/04 05:38:25;;;;;;;19.60;8.20;;;11.30;99.90;;;;;;5034642;28;20029;-59
2023/06/04 05:40:52;;;;;;;17.52;7.05;;;11.40;99.90;;;;;;5037676;28;20060;-59
2023/06/04 05:43:18;;;;;;;13.50;7.35;;;11.50;99.90;;;;;;5033698;28;20037;-59
2023/06/04 05:45:44;;;;;;;13.63;7.18;;;11.50;99.90;;;;;;5032645;28;20041;-59
2023/06/04 05:48:09;;;;;;;12.77;6.95;;;11.50;99.90;;;;;;5037606;28;20422;-59
2023/06/04 05:50:35;;;;;;;11.70;7.03;;;11.60;99.90;;;;;;5034730;28;20045;-59
2023/06/04 05:53:01;;;;;;;15.50;6.43;;;11.70;99.90;;;;;;5036275;28;20133;-58
2023/06/04 05:55:28;;;;;;;15.68;5.93;;;11.80;99.90;;;;;;5032763;28;20128;-59
2023/06/04 05:57:54;;;;;;;16.73;6.63;;;11.90;99.90;;;;;;5030438;28;20045;-58
2023/06/04 06:00:21;;;;;;;10.98;6.22;;;12.00;99.90;;;;;;5033435;28;20079;-58
2023/06/04 06:02:48;;;;;;;13.13;5.93;;;12.10;99.90;;;;;;5035435;28;20094;-59
2023/06/04 06:05:15;;;;;;;12.60;6.30;;;12.10;99.90;;;;;;5034272;28;20103;-59
2023/06/04 06:07:41;;;;;;;15.27;6.32;;;12.30;99.90;;;;;;5034933;28;20123;-59
2023/06/04 06:10:08;;;;;;;10.07;5.53;;;12.40;99.90;;;;;;5036165;28;20444;-59
2023/06/04 06:12:33;;;;;;;13.05;5.60;;;12.50;99.90;;;;;;5035575;28;20112;-59
2023/06/04 06:14:59;;;;;;;12.13;5.30;;;12.60;99.90;;;;;;5038199;28;20589;-59
2023/06/04 06:17:25;;;;;;;16.38;5.47;;;12.70;99.90;;;;;;5036025;28;20163;-59
2023/06/04 06:19:52;;;;;;;12.50;4.32;;;12.80;99.90;;;;;;5038016;28;20080;-59
2023/06/04 06:22:18;;;;;;;12.15;4.88;;;12.90;99.90;;;;;;5038110;28;20039;-59
2023/06/04 06:24:43;;;;;;;15.63;4.97;;;13.00;99.90;;;;;;5036501;28;20041;-58
2023/06/04 06:27:10;;;;;;;18.85;4.38;;;13.10;99.90;;;;;;5036992;28;20032;-59
2023/06/04 06:29:36;;;;;;;9.68;4.18;;;13.20;99.90;;;;;;5038061;28;20052;-58
2023/06/04 06:32:05;;;;;;;10.38;4.13;;;13.30;99.90;;;;;;5036976;28;20041;-59
2023/06/04 06:34:31;;;;;;;9.35;3.60;;;13.40;99.90;;;;;;5056046;28;20091;-58
2023/06/04 06:36:57;;;;;;;11.70;3.70;;;13.50;99.90;;;;;;5036585;28;20038;-59
2023/06/04 06:39:22;;;;;;;15.27;4.00;;;13.60;99.90;;;;;;5038117;28;20036;-59
2023/06/04 06:41:48;;;;;;;6.40;3.00;;;13.70;99.90;;;;;;5037043;28;20120;-58
2023/06/04 06:44:14;;;;;;;13.07;4.15;;;13.80;99.90;;;;;;5018804;28;20037;-59
2023/06/04 06:46:40;;;;;;;8.15;3.13;;;13.90;99.90;;;;;;5036609;28;20557;-59
2023/06/04 06:49:05;;;;;;;10.35;3.70;;;14.00;99.90;;;;;;5036201;28;20468;-59
2023/06/04 06:51:31;;;;;;;15.13;4.20;;;14.00;99.90;;;;;;5038695;28;20171;-59
2023/06/04 06:53:57;;;;;;;6.45;3.15;;;14.10;99.90;;;;;;5034647;28;20037;-57
2023/06/04 06:56:22;;;;;;;9.55;3.30;;;14.20;99.90;;;;;;5031966;28;20040;-59
2023/06/04 06:58:48;;;;;;;9.40;3.38;;;14.30;99.90;;;;;;5032454;28;20167;-59
2023/06/04 07:01:14;;;;;;;7.10;2.75;;;14.50;99.90;;;;;;5030905;28;20083;-58
2023/06/04 07:03:40;;;;;;;5.78;3.05;;;14.50;99.90;;;;;;5033350;28;20036;-59
2023/06/04 07:06:06;;;;;;;8.48;2.63;;;14.60;99.90;;;;;;5028550;28;20494;-59
2023/06/04 07:08:33;;;;;;;6.97;2.95;;;14.70;99.90;;;;;;5030667;28;20379;-59
2023/06/04 07:11:01;;;;;;;6.57;2.72;;;14.70;99.90;;;;;;5031578;28;20048;-59
2023/06/04 07:13:27;;;;;;;8.63;2.70;;;14.70;99.90;;;;;;5035791;28;20135;-59
2023/06/04 07:15:53;;;;;;;7.35;2.60;;;14.80;99.90;;;;;;5030096;28;20121;-59
2023/06/04 07:18:19;;;;;;;9.23;2.65;;;14.90;99.90;;;;;;5030767;28;20039;-59
2023/06/04 07:20:45;;;;;;;7.68;2.50;;;15.00;99.90;;;;;;5032115;28;20120;-59
2023/06/04 07:23:11;;;;;;;9.88;3.10;;;15.20;99.90;;;;;;5031086;28;20048;-60
2023/06/04 07:25:36;;;;;;;7.72;2.38;;;15.20;99.90;;;;;;5031293;28;20041;-59
2023/06/04 07:28:03;;;;;;;10.15;2.50;;;15.30;99.90;;;;;;5033727;28;20029;-58
2023/06/04 07:30:31;;;;;;;9.85;2.25;;;15.40;99.90;;;;;;5023580;28;20148;-59
2023/06/04 07:32:57;;;;;;;6.60;2.53;;;15.50;99.90;;;;;;5030707;28;20040;-59
2023/06/04 07:35:23;;;;;;;9.32;2.90;;;15.60;99.90;;;;;;5033094;28;20101;-59
2023/06/04 07:37:50;;;;;;;12.63;2.70;;;15.70;99.90;;;;;;5037349;28;20534;-59
2023/06/04 07:40:16;;;;;;;8.10;2.65;;;15.80;99.90;;;;;;5034096;28;20536;-59
2023/06/04 07:42:43;;;;;;;6.60;2.25;;;15.80;99.90;;;;;;5032841;28;20049;-59
2023/06/04 07:45:09;;;;;;;6.80;2.38;;;15.90;99.90;;;;;;5031655;28;20037;-58
2023/06/04 07:47:36;;;;;;;10.50;2.58;;;16.00;99.90;;;;;;5033532;28;20329;-59
2023/06/04 07:50:03;;;;;;;9.48;2.63;;;16.10;99.90;;;;;;5036537;28;20041;-59
2023/06/04 07:52:29;;;;;;;7.53;2.30;;;16.10;99.90;;;;;;5031204;28;20036;-59
2023/06/04 07:54:55;;;;;;;5.38;2.38;;;16.20;99.90;;;;;;5033726;28;20045;-59
2023/06/04 07:57:21;;;;;;;7.47;2.30;;;16.20;99.90;;;;;;5034509;28;20516;-59
2023/06/04 07:59:46;;;;;;;6.82;2.22;;;16.30;99.90;;;;;;5034255;28;20037;-59
2023/06/04 08:02:12;;;;;;;8.10;1.98;;;16.40;99.90;;;;;;5036322;28;20418;-59
2023/06/04 08:04:39;;;;;;;12.15;3.13;;;16.50;99.90;;;;;;5020135;28;20091;-59
2023/06/04 08:07:05;;;;;;;8.65;2.40;;;16.50;99.90;;;;;;5033337;28;20040;-59
2023/06/04 08:09:31;;;;;;;8.38;2.25;;;16.70;99.90;;;;;;5033536;28;20072;-59
2023/06/04 08:11:57;;;;;;;6.40;2.10;;;16.70;99.90;;;;;;5033621;28;20053;-58
2023/06/04 08:14:26;;;;;;;8.45;2.28;;;16.80;99.90;;;;;;5035801;28;20048;-60
2023/06/04 08:16:53;;;;;;;6.28;2.15;;;16.90;99.90;;;;;;5032166;28;20493;-60
2023/06/04 08:19:18;;;;;;;7.15;2.40;;;17.00;99.90;;;;;;5029770;28;20110;-59
2023/06/04 08:21:45;;;;;;;6.00;1.75;;;17.00;99.90;;;;;;5032047;28;20124;-59
2023/06/04 08:24:11;;;;;;;7.20;1.75;;;17.20;99.90;;;;;;5032029;28;20056;-59
2023/06/04 08:26:37;;;;;;;7.50;2.10;;;17.20;99.90;;;;;;5036829;28;20037;-59
2023/06/04 08:29:06;;;;;;;5.40;2.03;;;17.30;99.90;;;;;;5035392;28;20063;-59
2023/06/04 08:31:32;;;;;;;5.43;1.90;;;17.40;99.90;;;;;;5034093;28;20504;-59
2023/06/04 08:33:58;;;;;;;5.40;2.00;;;17.50;99.90;;;;;;5035457;28;20041;-60
2023/06/04 08:36:25;;;;;;;6.43;2.00;;;17.50;99.90;;;;;;5034105;28;20120;-59
2023/06/04 08:38:52;;;;;;;4.95;2.05;;;17.70;99.90;;;;;;5030664;28;20037;-60
2023/06/04 08:41:36;;;;;;;7.15;2.20;;;17.80;99.90;;;;;;5034763;28;20045;-59
2023/06/04 08:44:06;;;;;;;6.95;1.92;;;17.80;99.50;;;;;;5034486;28;20058;-60
2023/06/04 08:46:32;;;;;;;5.43;1.95;;;17.90;99.40;;;;;;5031783;28;20042;-61
2023/06/04 08:49:03;;;;;;;5.40;2.00;;;17.90;99.10;;;;;;5041694;28;20046;-61
2023/06/04 08:51:33;;;;;;;6.47;1.98;;;17.90;98.80;;;;;;5037921;28;20048;-61
2023/06/04 08:53:59;;;;;;;3.63;1.80;;;17.90;98.70;;;;;;5039717;28;20045;-61
2023/06/04 08:56:28;;;;;;;4.60;1.58;;;18.00;98.20;;;;;;5042555;28;20128;-61
2023/06/04 08:58:59;;;;;;;4.60;1.73;;;18.00;97.80;;;;;;5040176;28;20042;-61
2023/06/04 09:01:25;;;;;;;3.03;1.60;;;18.10;97.40;;;;;;5034203;28;20115;-61
2023/06/04 09:03:51;;;;;;;7.00;2.08;;;18.20;97.20;;;;;;5041041;28;20124;-61
2023/06/04 09:06:17;;;;;;;3.45;1.50;;;18.30;96.60;;;;;;5039411;28;20045;-61
2023/06/04 09:08:45;;;;;;;4.13;1.48;;;18.30;95.80;;;;;;5039932;28;20502;-61
2023/06/04 09:11:15;;;;;;;3.42;1.67;;;18.30;95.60;;;;;;5039833;28;20102;-61
2023/06/04 09:13:46;;;;;;;4.57;2.00;;;18.40;95.40;;;;;;5042358;28;20088;-61
2023/06/04 09:16:12;;;;;;;5.20;1.63;;;18.50;95.30;;;;;;5038499;28;20060;-60
2023/06/04 09:18:38;;;;;;;5.35;1.50;;;18.60;94.90;;;;;;5037253;28;20045;-61
2023/06/04 09:21:06;;;;;;;2.35;1.58;;;18.70;94.40;;;;;;5034256;28;20057;-61
2023/06/04 09:23:43;;;;;;;4.95;1.77;;;18.80;93.90;;;;;;5026391;28;20057;-60
2023/06/04 09:26:10;;;;;;;3.25;1.70;;;18.80;93.10;;;;;;5024117;28;20040;-60
2023/06/04 09:28:43;;;;;;;4.57;1.80;;;18.80;93.50;;;;;;5028718;28;20040;-60
2023/06/04 09:31:20;;;;;;;4.85;1.60;;;18.90;93.60;;;;;;5024978;28;20044;-62
2023/06/04 09:33:47;;;;;;;3.85;1.60;;;19.00;93.30;;;;;;5028058;28;20037;-62
2023/06/04 09:36:13;;;;;;;2.97;1.77;;;19.00;93.40;;;;;;5025193;28;20104;-61
2023/06/04 09:38:40;;;;;;;5.00;1.77;;;19.00;92.40;;;;;;5026888;28;20037;-60
2023/06/04 09:41:16;;;;;;;4.25;1.63;;;19.00;92.00;;;;;;5032682;28;20026;-61
2023/06/04 09:43:43;;;;;;;5.07;1.70;;;19.00;92.00;;;;;;5041637;28;21043;-61
2023/06/04 09:46:16;;;;;;;4.22;1.52;;;19.20;91.60;;;;;;5039631;28;20049;-61
2023/06/04 09:48:43;;;;;;;3.88;1.90;;;19.20;91.40;;;;;;5040262;28;20037;-61
2023/06/04 09:51:11;;;;;;;3.10;1.67;;;19.30;90.80;;;;;;5044963;28;20048;-61
2023/06/04 09:53:37;;;;;;;4.55;1.58;;;19.40;91.00;;;;;;5035398;28;20042;-61
2023/06/04 09:56:06;;;;;;;4.00;1.48;;;19.50;91.00;;;;;;5039561;28;20045;-61
2023/06/04 09:58:32;;;;;;;6.05;1.55;;;19.60;90.70;;;;;;5040922;28;20974;-61
2023/06/04 10:01:00;;;;;;;6.10;1.60;;;19.60;89.90;;;;;;5038335;28;20449;-62
2023/06/04 10:03:30;;;;;;;4.38;1.42;;;19.70;90.10;;;;;;5038985;28;20099;-61
2023/06/04 10:06:01;;;;;;;3.95;1.70;;;19.80;90.30;;;;;;5038231;28;20049;-60
2023/06/04 10:08:28;;;;;;;4.70;1.65;;;19.90;89.50;;;;;;5053636;28;20041;-61
2023/06/04 10:10:57;;;;;;;4.00;1.58;;;19.90;90.00;;;;;;5038088;28;20060;-61
2023/06/04 10:13:26;;;;;;;3.70;1.40;;;20.00;89.30;;;;;;5037390;28;20048;-61
2023/06/04 10:15:52;;;;;;;4.07;1.70;;;20.10;88.30;;;;;;5039843;28;20132;-60
2023/06/04 10:18:18;;;;;;;5.78;1.98;;;20.10;87.30;;;;;;5035670;28;20079;-61
2023/06/04 10:20:44;;;;;;;4.15;1.35;;;20.20;87.60;;;;;;5038243;28;20041;-61
2023/06/04 10:23:11;;;;;;;2.75;1.60;;;20.30;86.80;;;;;;5032446;28;20056;-61
2023/06/04 10:25:37;;;;;;;5.18;1.58;;;20.30;85.50;;;;;;5034022;28;20059;-62
2023/06/04 10:28:03;;;;;;;4.70;1.63;;;20.40;87.10;;;;;;5032730;28;20032;-61
2023/06/04 10:30:30;;;;;;;3.38;1.50;;;20.50;86.20;;;;;;5032977;28;20037;-61
2023/06/04 10:33:00;;;;;;;4.47;1.73;;;20.60;86.60;;;;;;5032984;28;20040;-61
2023/06/04 10:35:32;;;;;;;2.13;1.50;;;20.60;85.20;;;;;;5033068;28;20033;-62
2023/06/04 10:38:13;;;;;;;2.10;1.30;;;20.70;85.20;;;;;;5032513;28;20073;-61
2023/06/04 10:40:39;;;;;;;3.53;1.58;;;20.70;84.80;;;;;;5035148;28;20032;-61
2023/06/04 10:43:11;;;;;;;3.63;1.77;;;20.80;84.80;;;;;;5035984;28;20521;-61
2023/06/04 10:45:37;;;;;;;5.85;1.58;;;20.90;83.50;;;;;;5038498;28;20473;-62
2023/06/04 10:48:07;;;;;;;3.38;1.55;;;20.90;82.80;;;;;;5031598;28;20068;-61
2023/06/04 10:50:35;;;;;;;3.85;1.45;;;21.00;82.50;;;;;;5034274;28;20040;-61
2023/06/04 10:53:05;;;;;;;3.38;1.30;;;21.00;80.70;;;;;;5030679;28;20044;-61
2023/06/04 10:55:31;;;;;;;4.20;1.52;;;21.00;79.80;;;;;;5044067;28;20498;-61
2023/06/04 10:58:01;;;;;;;2.85;1.60;;;21.00;80.50;;;;;;5030947;28;20037;-59
2023/06/04 11:00:42;;;;;;;3.85;1.60;;;21.00;81.40;;;;;;5029084;28;20492;-59
2023/06/04 11:03:11;;;;;;;9.07;1.83;;;21.20;81.70;;;;;;5032530;28;20095;-60
2023/06/04 11:05:44;;;;;;;3.60;1.75;;;21.30;82.30;;;;;;5032107;28;20045;-59
2023/06/04 11:08:13;;;;;;;6.35;2.03;;;21.30;82.30;;;;;;5030347;28;20049;-59
2023/06/04 11:10:41;;;;;;;3.88;1.60;;;21.40;81.40;;;;;;5029664;28;20065;-59
2023/06/04 11:13:07;;;;;;;3.22;1.67;;;21.40;81.90;;;;;;5030907;28;20045;-59
2023/06/04 11:15:43;;;;;;;2.97;1.70;;;21.40;81.80;;;;;;5030415;28;20029;-60
2023/06/04 11:18:20;;;;;;;3.70;1.98;;;21.50;80.60;;;;;;5034244;28;20112;-59
2023/06/04 11:20:58;;;;;;;6.70;2.47;;;21.50;81.60;;;;;;5034794;28;20044;-60
2023/06/04 11:23:23;;;;;;;5.90;2.20;;;21.60;81.20;;;;;;5034575;28;20040;-59
2023/06/04 11:25:52;;;;;;;3.88;1.90;;;21.60;80.70;;;;;;5034882;28;20052;-59
2023/06/04 11:28:18;;;;;;;3.75;1.83;;;21.60;81.80;;;;;;5030506;28;20728;-60
2023/06/04 11:30:55;;;;;;;6.53;1.92;;;21.80;81.80;;;;;;5031756;28;20049;-60
2023/06/04 11:33:21;;;;;;;5.78;2.00;;;21.90;81.70;;;;;;5031586;28;20114;-59
2023/06/04 11:35:46;;;;;;;5.32;2.13;;;22.00;79.90;;;;;;5034092;28;20045;-60
2023/06/04 11:38:12;;;;;;;7.65;2.33;;;22.00;79.60;;;;;;5032112;28;20541;-60
2023/06/04 11:40:38;;;;;;;4.60;2.22;;;22.10;79.30;;;;;;5034149;28;20049;-60
2023/06/04 11:43:05;;;;;;;6.57;2.25;;;22.00;77.80;;;;;;5032850;28;20036;-60
2023/06/04 11:45:31;;;;;;;4.18;2.20;;;22.00;77.80;;;;;;5032197;28;20045;-60
2023/06/04 11:47:57;;;;;;;5.68;1.90;;;22.00;77.50;;;;;;5033075;28;20055;-62
2023/06/04 11:50:27;;;;;;;6.97;2.40;;;21.90;77.50;;;;;;5032181;28;20029;-62
2023/06/04 11:52:54;;;;;;;4.15;2.22;;;21.90;78.30;;;;;;5031198;28;20044;-62
2023/06/04 11:55:20;;;;;;;6.20;1.98;;;21.90;77.80;;;;;;5035116;28;20041;-62
2023/06/04 11:57:47;;;;;;;5.10;2.10;;;22.10;77.80;;;;;;5033515;28;20033;-62
2023/06/04 12:00:15;;;;;;;3.53;1.83;;;22.10;77.80;;;;;;5032501;28;20048;-61
2023/06/04 12:02:54;;;;;;;6.18;2.15;;;22.30;76.70;;;;;;5032224;28;20041;-62
2023/06/04 12:05:22;;;;;;;4.72;1.88;;;22.30;77.90;;;;;;5034138;28;20128;-63
2023/06/04 12:07:52;;;;;;;3.25;1.77;;;22.30;75.40;;;;;;5031391;28;20160;-62
2023/06/04 12:10:21;;;;;;;4.80;1.75;;;22.30;75.30;;;;;;5034076;28;20065;-62
2023/06/04 12:12:54;;;;;;;3.03;1.50;;;22.40;76.80;;;;;;5031912;28;20486;-62
2023/06/04 12:15:20;;;;;;;3.72;1.55;;;22.40;76.00;;;;;;5033299;28;20970;-62
2023/06/04 12:17:53;;;;;;;4.00;1.40;;;22.40;75.80;;;;;;5016975;28;20049;-62
2023/06/04 12:20:32;;;;;;;4.90;1.67;;;22.50;74.90;;;;;;5039766;28;20044;-62
2023/06/04 12:22:58;;;;;;;2.67;1.80;;;22.50;74.00;;;;;;5031948;28;20140;-62
2023/06/04 12:25:26;;;;;;;3.90;1.65;;;22.40;73.70;;;;;;5032570;28;20033;-60
2023/06/04 12:27:52;;;;;;;5.97;1.90;;;22.50;72.50;;;;;;5032227;28;20076;-61
2023/06/04 12:30:18;;;;;;;5.90;2.20;;;22.50;72.10;;;;;;5035755;28;20040;-62
2023/06/04 12:32:45;;;;;;;3.78;1.65;;;22.40;71.80;;;;;;5032195;28;20045;-61
2023/06/04 12:35:11;;;;;;;4.25;1.60;;;22.40;71.80;;;;;;5032210;28;20099;-61
2023/06/04 12:37:37;;;;;;;5.00;2.13;;;22.40;72.80;;;;;;5030548;28;20029;-62
2023/06/04 12:40:06;;;;;;;4.28;1.65;;;22.40;72.80;;;;;;5030590;28;20038;-61
2023/06/04 12:42:32;;;;;;;6.32;1.92;;;22.50;71.80;;;;;;5028146;28;20107;-60
2023/06/04 12:44:57;;;;;;;3.42;1.50;;;22.50;71.40;;;;;;5032354;28;20067;-61
2023/06/04 12:47:23;;;;;;;5.47;1.80;;;22.60;72.20;;;;;;5029982;28;20070;-61